sensor_id;sensor_type;location;lat;lon;timestamp;pressure;altitude;pressure_sealevel;temperature;humidity
56789;BME280;42657;51.650;17.780;2023-01-15T00:01:03;99014.89;;;20.07;52.05
56789;BME280;42657;51.650;17.780;2023-01-15T00:04:21;99006.92;;;20.06;51.89
56789;BME280;42657;51.650;17.780;2023-01-15T00:07:23;99001.46;;;20.06;51.72
56789;BME280;42657;51.650;17.780;2023-01-15T00:10:24;98998.66;;;20.06;51.67
56789;BME280;42657;51.650;17.780;2023-01-15T00:13:26;98989.52;;;20.06;51.56
56789;BME280;42657;51.650;17.780;2023-01-15T00:16:28;98995.01;;;20.07;51.39
56789;BME280;42657;51.650;17.780;2023-01-15T00:19:29;98993.98;;;20.07;51.30
56789;BME280;42657;51.650;17.780;2023-01-15T00:22:31;98972.73;;;20.07;51.34
56789;BME280;42657;51.650;17.780;2023-01-15T00:25:32;98965.61;;;20.07;51.07
56789;BME280;42657;51.650;17.780;2023-01-15T00:28:34;98953.98;;;20.07;51.16
56789;BME280;42657;51.650;17.780;2023-01-15T00:31:36;98949.52;;;20.07;51.04
56789;BME280;42657;51.650;17.780;2023-01-15T00:34:37;98947.67;;;20.07;51.02
56789;BME280;42657;51.650;17.780;2023-01-15T00:37:39;98942.98;;;20.07;50.87
56789;BME280;42657;51.650;17.780;2023-01-15T00:40:40;98946.24;;;20.07;50.80
56789;BME280;42657;51.650;17.780;2023-01-15T00:43:42;98955.08;;;20.07;50.64
56789;BME280;42657;51.650;17.780;2023-01-15T00:46:44;98953.29;;;20.07;50.72
56789;BME280;42657;51.650;17.780;2023-01-15T00:49:45;98955.55;;;20.08;50.67
56789;BME280;42657;51.650;17.780;2023-01-15T00:52:47;98964.61;;;20.07;50.43
56789;BME280;42657;51.650;17.780;2023-01-15T00:55:48;98965.02;;;20.08;50.46
56789;BME280;42657;51.650;17.780;2023-01-15T00:58:50;98963.77;;;20.08;50.33
56789;BME280;42657;51.650;17.780;2023-01-15T01:01:51;98963.46;;;20.08;50.38
56789;BME280;42657;51.650;17.780;2023-01-15T01:04:53;98954.33;;;20.08;50.22
56789;BME280;42657;51.650;17.780;2023-01-15T01:07:54;98939.39;;;20.08;50.18
56789;BME280;42657;51.650;17.780;2023-01-15T01:14:04;98922.38;;;20.08;50.12
56789;BME280;42657;51.650;17.780;2023-01-15T01:17:06;98925.81;;;20.08;50.06
56789;BME280;42657;51.650;17.780;2023-01-15T01:20:08;98926.38;;;20.09;49.98
56789;BME280;42657;51.650;17.780;2023-01-15T01:23:09;98914.74;;;20.09;49.96
56789;BME280;42657;51.650;17.780;2023-01-15T01:26:11;98912.02;;;20.09;49.97
56789;BME280;42657;51.650;17.780;2023-01-15T01:29:18;98912.33;;;20.09;49.65
56789;BME280;42657;51.650;17.780;2023-01-15T01:32:20;98925.61;;;20.09;49.79
56789;BME280;42657;51.650;17.780;2023-01-15T01:35:22;98923.01;;;20.09;49.66
56789;BME280;42657;51.650;17.780;2023-01-15T01:38:23;98922.71;;;20.09;49.69
56789;BME280;42657;51.650;17.780;2023-01-15T01:41:25;98914.27;;;20.09;49.37
56789;BME280;42657;51.650;17.780;2023-01-15T01:47:33;98892.84;;;20.11;49.42
56789;BME280;42657;51.650;17.780;2023-01-15T01:50:36;98884.86;;;20.11;49.34
56789;BME280;42657;51.650;17.780;2023-01-15T01:53:39;98873.14;;;20.11;49.37
56789;BME280;42657;51.650;17.780;2023-01-15T01:56:41;98862.86;;;20.11;49.29
56789;BME280;42657;51.650;17.780;2023-01-15T01:59:43;98862.00;;;20.11;49.10
56789;BME280;42657;51.650;17.780;2023-01-15T02:02:46;98860.75;;;20.12;49.15
56789;BME280;42657;51.650;17.780;2023-01-15T02:05:52;98855.52;;;20.11;49.15
56789;BME280;42657;51.650;17.780;2023-01-15T02:08:55;98848.09;;;20.11;49.11
56789;BME280;42657;51.650;17.780;2023-01-15T02:12:01;98850.69;;;20.12;49.02
56789;BME280;42657;51.650;17.780;2023-01-15T02:15:08;98850.36;;;20.12;49.06
56789;BME280;42657;51.650;17.780;2023-01-15T02:21:55;98841.31;;;20.12;48.84
56789;BME280;42657;51.650;17.780;2023-01-15T02:25:12;98839.67;;;20.12;48.80
56789;BME280;42657;51.650;17.780;2023-01-15T02:28:27;98834.20;;;20.12;48.82
56789;BME280;42657;51.650;17.780;2023-01-15T02:31:36;98828.11;;;20.12;48.74
56789;BME280;42657;51.650;17.780;2023-01-15T02:34:44;98829.20;;;20.12;48.87
56789;BME280;42657;51.650;17.780;2023-01-15T02:37:52;98831.55;;;20.13;48.75
56789;BME280;42657;51.650;17.780;2023-01-15T02:40:55;98817.17;;;20.12;48.65
56789;BME280;42657;51.650;17.780;2023-01-15T02:44:00;98805.23;;;20.12;48.63
56789;BME280;42657;51.650;17.780;2023-01-15T02:47:03;98804.05;;;20.12;48.51
56789;BME280;42657;51.650;17.780;2023-01-15T02:50:09;98798.66;;;20.12;48.41
56789;BME280;42657;51.650;17.780;2023-01-15T02:53:17;98802.34;;;20.12;48.40
56789;BME280;42657;51.650;17.780;2023-01-15T02:56:23;98784.60;;;20.12;48.41
56789;BME280;42657;51.650;17.780;2023-01-15T02:59:33;98792.98;;;20.12;48.39
56789;BME280;42657;51.650;17.780;2023-01-15T03:02:41;98785.00;;;20.12;48.46
56789;BME280;42657;51.650;17.780;2023-01-15T03:05:52;98780.08;;;20.12;48.37
56789;BME280;42657;51.650;17.780;2023-01-15T03:08:56;98775.16;;;20.12;48.30
56789;BME280;42657;51.650;17.780;2023-01-15T03:12:05;98772.59;;;20.13;48.34
56789;BME280;42657;51.650;17.780;2023-01-15T03:15:15;98766.95;;;20.13;48.13
56789;BME280;42657;51.650;17.780;2023-01-15T03:18:20;98773.77;;;20.13;48.15
56789;BME280;42657;51.650;17.780;2023-01-15T03:21:30;98781.96;;;20.13;48.17
56789;BME280;42657;51.650;17.780;2023-01-15T03:24:46;98777.52;;;20.14;48.13
56789;BME280;42657;51.650;17.780;2023-01-15T03:27:51;98778.31;;;20.14;48.10
56789;BME280;42657;51.650;17.780;2023-01-15T03:30:53;98771.83;;;20.14;48.07
56789;BME280;42657;51.650;17.780;2023-01-15T03:33:55;98765.02;;;20.14;48.10
56789;BME280;42657;51.650;17.780;2023-01-15T03:36:56;98760.75;;;20.14;48.01
56789;BME280;42657;51.650;17.780;2023-01-15T03:39:58;98756.21;;;20.14;48.01
56789;BME280;42657;51.650;17.780;2023-01-15T03:43:04;98752.08;;;20.15;47.93
56789;BME280;42657;51.650;17.780;2023-01-15T03:56:34;98735.84;;;20.15;47.93
56789;BME280;42657;51.650;17.780;2023-01-15T03:59:53;98740.08;;;20.16;47.86
56789;BME280;42657;51.650;17.780;2023-01-15T04:02:56;98740.60;;;20.15;47.78
56789;BME280;42657;51.650;17.780;2023-01-15T04:06:00;98744.45;;;20.16;47.84
56789;BME280;42657;51.650;17.780;2023-01-15T04:09:05;98743.13;;;20.16;47.80
56789;BME280;42657;51.650;17.780;2023-01-15T04:12:07;98739.91;;;20.16;47.74
56789;BME280;42657;51.650;17.780;2023-01-15T04:15:12;98742.11;;;20.16;47.67
56789;BME280;42657;51.650;17.780;2023-01-15T04:18:13;98725.48;;;20.16;47.66
56789;BME280;42657;51.650;17.780;2023-01-15T04:21:15;98718.84;;;20.16;47.71
56789;BME280;42657;51.650;17.780;2023-01-15T04:24:16;98721.89;;;20.16;47.55
56789;BME280;42657;51.650;17.780;2023-01-15T04:27:18;98715.01;;;20.16;47.68
56789;BME280;42657;51.650;17.780;2023-01-15T04:30:20;98711.98;;;20.17;47.61
56789;BME280;42657;51.650;17.780;2023-01-15T04:33:21;98707.75;;;20.16;47.79
56789;BME280;42657;51.650;17.780;2023-01-15T04:36:23;98715.34;;;20.17;47.63
56789;BME280;42657;51.650;17.780;2023-01-15T04:39:24;98709.26;;;20.17;47.67
56789;BME280;42657;51.650;17.780;2023-01-15T04:42:26;98703.46;;;20.17;47.58
56789;BME280;42657;51.650;17.780;2023-01-15T04:45:27;98695.73;;;20.17;47.54
56789;BME280;42657;51.650;17.780;2023-01-15T04:48:29;98699.96;;;20.18;47.59
56789;BME280;42657;51.650;17.780;2023-01-15T04:51:31;98696.92;;;20.18;47.59
56789;BME280;42657;51.650;17.780;2023-01-15T04:54:33;98681.92;;;20.18;47.47
56789;BME280;42657;51.650;17.780;2023-01-15T04:57:34;98677.86;;;20.18;47.53
56789;BME280;42657;51.650;17.780;2023-01-15T05:00:36;98668.95;;;20.18;47.54
56789;BME280;42657;51.650;17.780;2023-01-15T05:03:37;98656.93;;;20.18;47.59
56789;BME280;42657;51.650;17.780;2023-01-15T05:06:39;98654.67;;;20.19;47.55
56789;BME280;42657;51.650;17.780;2023-01-15T05:09:40;98650.76;;;20.19;47.56
56789;BME280;42657;51.650;17.780;2023-01-15T05:12:42;98652.41;;;20.19;47.56
56789;BME280;42657;51.650;17.780;2023-01-15T05:15:43;98648.98;;;20.19;47.55
56789;BME280;42657;51.650;17.780;2023-01-15T05:18:46;98647.02;;;20.19;47.54
56789;BME280;42657;51.650;17.780;2023-01-15T05:21:48;98641.88;;;20.19;47.62
56789;BME280;42657;51.650;17.780;2023-01-15T05:24:50;98640.08;;;20.19;47.40
56789;BME280;42657;51.650;17.780;2023-01-15T05:27:52;98628.76;;;20.20;47.65
56789;BME280;42657;51.650;17.780;2023-01-15T05:30:54;98623.06;;;20.20;47.58
56789;BME280;42657;51.650;17.780;2023-01-15T05:33:57;98621.34;;;20.20;47.62
56789;BME280;42657;51.650;17.780;2023-01-15T05:36:58;98616.20;;;20.20;47.54
56789;BME280;42657;51.650;17.780;2023-01-15T05:40:00;98616.88;;;20.20;47.67
56789;BME280;42657;51.650;17.780;2023-01-15T05:43:01;98617.30;;;20.21;47.68
56789;BME280;42657;51.650;17.780;2023-01-15T05:46:03;98614.09;;;20.21;47.75
56789;BME280;42657;51.650;17.780;2023-01-15T05:49:08;98618.23;;;20.21;47.78
56789;BME280;42657;51.650;17.780;2023-01-15T05:52:10;98620.81;;;20.21;47.76
56789;BME280;42657;51.650;17.780;2023-01-15T05:55:11;98618.55;;;20.21;47.65
56789;BME280;42657;51.650;17.780;2023-01-15T05:58:13;98618.94;;;20.21;47.69
56789;BME280;42657;51.650;17.780;2023-01-15T06:01:14;98618.48;;;20.21;47.60
56789;BME280;42657;51.650;17.780;2023-01-15T06:04:16;98621.30;;;20.22;47.76
56789;BME280;42657;51.650;17.780;2023-01-15T06:07:18;98622.56;;;20.22;47.73
56789;BME280;42657;51.650;17.780;2023-01-15T06:10:20;98626.23;;;20.22;47.72
56789;BME280;42657;51.650;17.780;2023-01-15T06:13:21;98630.36;;;20.22;47.57
56789;BME280;42657;51.650;17.780;2023-01-15T06:16:23;98628.17;;;20.22;47.61
56789;BME280;42657;51.650;17.780;2023-01-15T06:19:24;98625.05;;;20.22;47.78
56789;BME280;42657;51.650;17.780;2023-01-15T06:22:26;98625.21;;;20.23;47.64
56789;BME280;42657;51.650;17.780;2023-01-15T06:25:28;98623.73;;;20.23;47.73
56789;BME280;42657;51.650;17.780;2023-01-15T06:28:29;98623.59;;;20.23;47.73
56789;BME280;42657;51.650;17.780;2023-01-15T06:31:31;98621.86;;;20.23;47.57
56789;BME280;42657;51.650;17.780;2023-01-15T06:34:33;98622.89;;;20.23;47.75
56789;BME280;42657;51.650;17.780;2023-01-15T06:37:34;98620.54;;;20.23;47.78
56789;BME280;42657;51.650;17.780;2023-01-15T06:40:36;98623.42;;;20.23;47.71
56789;BME280;42657;51.650;17.780;2023-01-15T06:43:37;98622.18;;;20.23;47.69
56789;BME280;42657;51.650;17.780;2023-01-15T06:46:43;98621.34;;;20.24;47.75
56789;BME280;42657;51.650;17.780;2023-01-15T06:49:45;98620.55;;;20.24;47.75
56789;BME280;42657;51.650;17.780;2023-01-15T06:52:47;98621.41;;;20.24;47.82
56789;BME280;42657;51.650;17.780;2023-01-15T06:55:49;98616.63;;;20.23;47.74
56789;BME280;42657;51.650;17.780;2023-01-15T06:58:50;98613.91;;;20.24;47.74
56789;BME280;42657;51.650;17.780;2023-01-15T07:01:52;98611.02;;;20.24;47.68
56789;BME280;42657;51.650;17.780;2023-01-15T07:04:53;98612.52;;;20.25;47.70
56789;BME280;42657;51.650;17.780;2023-01-15T07:07:56;98611.74;;;20.25;47.70
56789;BME280;42657;51.650;17.780;2023-01-15T07:11:02;98608.46;;;20.25;47.78
56789;BME280;42657;51.650;17.780;2023-01-15T07:14:04;98605.96;;;20.25;47.79
56789;BME280;42657;51.650;17.780;2023-01-15T07:17:06;98601.67;;;20.25;47.77
56789;BME280;42657;51.650;17.780;2023-01-15T07:20:08;98601.90;;;20.25;47.79
56789;BME280;42657;51.650;17.780;2023-01-15T07:23:10;98601.28;;;20.25;47.87
56789;BME280;42657;51.650;17.780;2023-01-15T07:26:11;98590.98;;;20.26;47.78
56789;BME280;42657;51.650;17.780;2023-01-15T07:29:13;98589.02;;;20.26;47.89
56789;BME280;42657;51.650;17.780;2023-01-15T07:32:15;98588.56;;;20.26;47.82
56789;BME280;42657;51.650;17.780;2023-01-15T07:35:16;98597.10;;;20.27;47.81
56789;BME280;42657;51.650;17.780;2023-01-15T07:38:18;98589.81;;;20.26;47.87
56789;BME280;42657;51.650;17.780;2023-01-15T07:41:19;98587.64;;;20.27;47.89
56789;BME280;42657;51.650;17.780;2023-01-15T07:44:21;98589.05;;;20.27;47.91
56789;BME280;42657;51.650;17.780;2023-01-15T07:47:24;98588.11;;;20.27;47.83
56789;BME280;42657;51.650;17.780;2023-01-15T07:50:27;98586.80;;;20.27;47.88
56789;BME280;42657;51.650;17.780;2023-01-15T07:53:28;98586.95;;;20.27;47.98
56789;BME280;42657;51.650;17.780;2023-01-15T07:56:29;98581.66;;;20.28;47.99
56789;BME280;42657;51.650;17.780;2023-01-15T07:59:31;98580.25;;;20.28;47.90
56789;BME280;42657;51.650;17.780;2023-01-15T08:02:33;98577.50;;;20.28;47.96
56789;BME280;42657;51.650;17.780;2023-01-15T08:05:34;98573.45;;;20.28;47.79
56789;BME280;42657;51.650;17.780;2023-01-15T08:08:36;98573.91;;;20.29;47.92
56789;BME280;42657;51.650;17.780;2023-01-15T08:11:37;98574.48;;;20.29;47.98
56789;BME280;42657;51.650;17.780;2023-01-15T08:14:39;98584.80;;;20.29;48.05
56789;BME280;42657;51.650;17.780;2023-01-15T08:17:46;98585.27;;;20.30;48.02
56789;BME280;42657;51.650;17.780;2023-01-15T08:20:48;98586.99;;;20.30;48.20
56789;BME280;42657;51.650;17.780;2023-01-15T08:23:49;98584.98;;;20.30;48.19
56789;BME280;42657;51.650;17.780;2023-01-15T08:26:51;98584.56;;;20.29;48.15
56789;BME280;42657;51.650;17.780;2023-01-15T08:29:53;98580.94;;;20.27;48.30
56789;BME280;42657;51.650;17.780;2023-01-15T08:32:59;98584.44;;;20.26;48.35
56789;BME280;42657;51.650;17.780;2023-01-15T08:36:01;98587.45;;;20.25;48.44
56789;BME280;42657;51.650;17.780;2023-01-15T08:39:03;98589.86;;;20.25;48.48
56789;BME280;42657;51.650;17.780;2023-01-15T08:42:05;98589.02;;;20.25;48.55
56789;BME280;42657;51.650;17.780;2023-01-15T08:45:08;98590.98;;;20.25;48.58
56789;BME280;42657;51.650;17.780;2023-01-15T08:48:09;98586.61;;;20.26;48.72
56789;BME280;42657;51.650;17.780;2023-01-15T08:51:11;98588.64;;;20.26;48.68
56789;BME280;42657;51.650;17.780;2023-01-15T08:54:12;98581.40;;;20.27;48.77
56789;BME280;42657;51.650;17.780;2023-01-15T08:57:14;98583.42;;;20.27;48.84
56789;BME280;42657;51.650;17.780;2023-01-15T09:00:16;98580.55;;;20.27;48.80
56789;BME280;42657;51.650;17.780;2023-01-15T09:03:18;98577.64;;;20.27;48.92
56789;BME280;42657;51.650;17.780;2023-01-15T09:06:19;98574.80;;;20.25;48.94
56789;BME280;42657;51.650;17.780;2023-01-15T09:09:21;98566.90;;;20.25;48.95
56789;BME280;42657;51.650;17.780;2023-01-15T09:12:22;98567.81;;;20.23;49.07
56789;BME280;42657;51.650;17.780;2023-01-15T09:15:25;98570.90;;;20.21;49.19
56789;BME280;42657;51.650;17.780;2023-01-15T09:18:26;98571.74;;;20.20;49.12
56789;BME280;42657;51.650;17.780;2023-01-15T09:21:28;98566.79;;;20.19;49.04
56789;BME280;42657;51.650;17.780;2023-01-15T09:24:32;98563.58;;;20.18;49.22
56789;BME280;42657;51.650;17.780;2023-01-15T09:27:33;98555.52;;;20.18;49.35
56789;BME280;42657;51.650;17.780;2023-01-15T09:30:35;98556.54;;;20.18;49.38
56789;BME280;42657;51.650;17.780;2023-01-15T09:33:37;98557.42;;;20.19;49.44
56789;BME280;42657;51.650;17.780;2023-01-15T09:36:38;98554.78;;;20.19;49.48
56789;BME280;42657;51.650;17.780;2023-01-15T09:39:40;98546.04;;;20.20;49.73
56789;BME280;42657;51.650;17.780;2023-01-15T09:42:49;98544.33;;;20.20;49.80
56789;BME280;42657;51.650;17.780;2023-01-15T09:45:58;98539.95;;;20.21;49.77
56789;BME280;42657;51.650;17.780;2023-01-15T09:49:31;98547.08;;;20.21;49.78
56789;BME280;42657;51.650;17.780;2023-01-15T09:53:12;98555.92;;;20.22;49.92
56789;BME280;42657;51.650;17.780;2023-01-15T09:56:21;98554.76;;;20.22;49.99
56789;BME280;42657;51.650;17.780;2023-01-15T09:59:38;98555.86;;;20.22;49.92
56789;BME280;42657;51.650;17.780;2023-01-15T10:09:20;98548.90;;;20.23;49.94
56789;BME280;42657;51.650;17.780;2023-01-15T10:12:26;98545.38;;;20.23;50.06
56789;BME280;42657;51.650;17.780;2023-01-15T10:15:46;98544.28;;;20.22;50.02
56789;BME280;42657;51.650;17.780;2023-01-15T10:18:48;98542.08;;;20.21;49.98
56789;BME280;42657;51.650;17.780;2023-01-15T10:21:58;98536.54;;;20.21;50.07
56789;BME280;42657;51.650;17.780;2023-01-15T10:25:08;98534.56;;;20.21;50.11
56789;BME280;42657;51.650;17.780;2023-01-15T10:28:19;98530.89;;;20.20;50.19
56789;BME280;42657;51.650;17.780;2023-01-15T10:31:26;98529.64;;;20.20;50.29
56789;BME280;42657;51.650;17.780;2023-01-15T10:44:46;98528.05;;;20.19;50.43
56789;BME280;42657;51.650;17.780;2023-01-15T10:47:57;98532.65;;;20.18;50.54
56789;BME280;42657;51.650;17.780;2023-01-15T10:51:05;98528.27;;;20.17;50.47
56789;BME280;42657;51.650;17.780;2023-01-15T10:54:36;98530.30;;;20.17;50.36
56789;BME280;42657;51.650;17.780;2023-01-15T10:58:23;98525.37;;;20.17;50.54
56789;BME280;42657;51.650;17.780;2023-01-15T11:01:20;98523.49;;;20.17;50.46
56789;BME280;42657;51.650;17.780;2023-01-15T11:04:26;98520.90;;;20.16;50.56
56789;BME280;42657;51.650;17.780;2023-01-15T11:07:37;98520.89;;;20.15;50.68
56789;BME280;42657;51.650;17.780;2023-01-15T11:10:39;98521.10;;;20.14;50.60
56789;BME280;42657;51.650;17.780;2023-01-15T11:13:51;98519.37;;;20.14;50.64
56789;BME280;42657;51.650;17.780;2023-01-15T11:16:53;98517.65;;;20.13;50.58
56789;BME280;42657;51.650;17.780;2023-01-15T11:19:55;98515.14;;;20.12;50.64
56789;BME280;42657;51.650;17.780;2023-01-15T11:23:08;98517.70;;;20.13;50.52
56789;BME280;42657;51.650;17.780;2023-01-15T11:26:30;98514.67;;;20.12;50.55
56789;BME280;42657;51.650;17.780;2023-01-15T11:29:34;98515.45;;;20.12;50.64
56789;BME280;42657;51.650;17.780;2023-01-15T11:32:37;98518.73;;;20.12;50.78
56789;BME280;42657;51.650;17.780;2023-01-15T11:35:49;98522.39;;;20.13;51.02
56789;BME280;42657;51.650;17.780;2023-01-15T11:38:51;98524.61;;;20.14;51.33
56789;BME280;42657;51.650;17.780;2023-01-15T11:42:01;98533.63;;;20.15;51.60
56789;BME280;42657;51.650;17.780;2023-01-15T11:45:17;98537.94;;;20.16;51.76
56789;BME280;42657;51.650;17.780;2023-01-15T11:48:21;98539.82;;;20.17;51.98
56789;BME280;42657;51.650;17.780;2023-01-15T11:51:26;98545.52;;;20.18;52.20
56789;BME280;42657;51.650;17.780;2023-01-15T11:54:29;98538.59;;;20.19;52.39
56789;BME280;42657;51.650;17.780;2023-01-15T11:57:32;98551.51;;;20.20;52.54
56789;BME280;42657;51.650;17.780;2023-01-15T12:00:41;98555.03;;;20.20;52.66
56789;BME280;42657;51.650;17.780;2023-01-15T12:03:44;98559.83;;;20.22;52.77
56789;BME280;42657;51.650;17.780;2023-01-15T12:06:45;98567.17;;;20.23;52.70
56789;BME280;42657;51.650;17.780;2023-01-15T12:13:29;98572.20;;;20.24;53.07
56789;BME280;42657;51.650;17.780;2023-01-15T12:37:20;98625.27;;;20.17;52.97
56789;BME280;42657;51.650;17.780;2023-01-15T12:40:39;98633.77;;;20.17;52.86
56789;BME280;42657;51.650;17.780;2023-01-15T12:43:50;98641.90;;;20.16;52.61
56789;BME280;42657;51.650;17.780;2023-01-15T12:46:54;98646.13;;;20.17;52.29
56789;BME280;42657;51.650;17.780;2023-01-15T12:50:26;98652.52;;;20.17;52.40
56789;BME280;42657;51.650;17.780;2023-01-15T12:53:40;98666.52;;;20.17;52.10
56789;BME280;42657;51.650;17.780;2023-01-15T12:57:02;98678.16;;;20.17;51.96
56789;BME280;42657;51.650;17.780;2023-01-15T13:00:45;98676.67;;;20.17;51.77
56789;BME280;42657;51.650;17.780;2023-01-15T13:07:26;98691.21;;;20.18;51.52
56789;BME280;42657;51.650;17.780;2023-01-15T13:10:32;98687.55;;;20.18;51.49
56789;BME280;42657;51.650;17.780;2023-01-15T13:13:37;98688.41;;;20.18;51.40
56789;BME280;42657;51.650;17.780;2023-01-15T13:16:51;98683.65;;;20.19;51.22
56789;BME280;42657;51.650;17.780;2023-01-15T13:23:28;98685.91;;;20.18;51.08
56789;BME280;42657;51.650;17.780;2023-01-15T13:26:56;98688.64;;;20.18;50.87
56789;BME280;42657;51.650;17.780;2023-01-15T13:33:52;98712.57;;;20.19;50.68
56789;BME280;42657;51.650;17.780;2023-01-15T13:36:47;98715.22;;;20.19;50.67
56789;BME280;42657;51.650;17.780;2023-01-15T13:39:51;98713.83;;;20.20;50.70
56789;BME280;42657;51.650;17.780;2023-01-15T13:42:55;98709.23;;;20.20;50.62
56789;BME280;42657;51.650;17.780;2023-01-15T13:45:58;98709.23;;;20.20;50.74
56789;BME280;42657;51.650;17.780;2023-01-15T13:49:00;98719.23;;;20.21;50.56
56789;BME280;42657;51.650;17.780;2023-01-15T13:52:03;98722.73;;;20.20;50.48
56789;BME280;42657;51.650;17.780;2023-01-15T13:55:28;98722.72;;;20.19;50.40
56789;BME280;42657;51.650;17.780;2023-01-15T13:58:33;98735.85;;;20.20;50.30
56789;BME280;42657;51.650;17.780;2023-01-15T14:01:35;98744.81;;;20.19;50.35
56789;BME280;42657;51.650;17.780;2023-01-15T14:04:37;98752.23;;;20.18;50.15
56789;BME280;42657;51.650;17.780;2023-01-15T14:07:39;98760.48;;;20.16;50.25
56789;BME280;42657;51.650;17.780;2023-01-15T14:10:40;98759.66;;;20.14;50.34
56789;BME280;42657;51.650;17.780;2023-01-15T14:13:53;98745.55;;;20.13;50.40
56789;BME280;42657;51.650;17.780;2023-01-15T14:17:25;98742.96;;;20.12;50.33
56789;BME280;42657;51.650;17.780;2023-01-15T14:31:05;98799.50;;;20.11;50.53
56789;BME280;42657;51.650;17.780;2023-01-15T14:37:46;98811.90;;;20.10;50.53
56789;BME280;42657;51.650;17.780;2023-01-15T14:40:57;98816.02;;;20.09;50.68
56789;BME280;42657;51.650;17.780;2023-01-15T14:44:00;98822.58;;;20.09;50.75
56789;BME280;42657;51.650;17.780;2023-01-15T14:47:04;98831.54;;;20.08;50.71
56789;BME280;42657;51.650;17.780;2023-01-15T14:50:29;98816.34;;;20.10;50.69
56789;BME280;42657;51.650;17.780;2023-01-15T14:53:43;98804.89;;;20.11;50.65
56789;BME280;42657;51.650;17.780;2023-01-15T14:56:53;98819.74;;;20.11;50.63
56789;BME280;42657;51.650;17.780;2023-01-15T15:00:02;98831.63;;;20.12;50.55
56789;BME280;42657;51.650;17.780;2023-01-15T15:03:15;98845.13;;;20.11;50.49
56789;BME280;42657;51.650;17.780;2023-01-15T15:06:18;98845.29;;;20.11;50.56
56789;BME280;42657;51.650;17.780;2023-01-15T15:09:30;98851.40;;;20.12;50.47
56789;BME280;42657;51.650;17.780;2023-01-15T15:12:43;98836.70;;;20.12;50.59
56789;BME280;42657;51.650;17.780;2023-01-15T15:19:29;98818.31;;;20.11;50.69
56789;BME280;42657;51.650;17.780;2023-01-15T15:22:35;98815.88;;;20.10;50.50
56789;BME280;42657;51.650;17.780;2023-01-15T15:25:38;98810.55;;;20.10;50.57
56789;BME280;42657;51.650;17.780;2023-01-15T15:28:40;98806.25;;;20.09;50.43
56789;BME280;42657;51.650;17.780;2023-01-15T15:31:50;98793.52;;;20.09;50.50
56789;BME280;42657;51.650;17.780;2023-01-15T15:34:53;98780.48;;;20.10;50.36
56789;BME280;42657;51.650;17.780;2023-01-15T15:37:59;98780.63;;;20.09;50.32
56789;BME280;42657;51.650;17.780;2023-01-15T15:41:05;98787.19;;;20.09;50.25
56789;BME280;42657;51.650;17.780;2023-01-15T15:44:34;98793.59;;;20.09;50.16
56789;BME280;42657;51.650;17.780;2023-01-15T15:47:39;98795.23;;;20.09;50.30
56789;BME280;42657;51.650;17.780;2023-01-15T15:50:40;98777.73;;;20.09;50.34
56789;BME280;42657;51.650;17.780;2023-01-15T15:53:42;98783.52;;;20.09;50.25
56789;BME280;42657;51.650;17.780;2023-01-15T15:59:54;98775.27;;;20.10;50.44
56789;BME280;42657;51.650;17.780;2023-01-15T16:03:03;98775.48;;;20.10;50.41
56789;BME280;42657;51.650;17.780;2023-01-15T16:06:06;98771.76;;;20.10;50.38
56789;BME280;42657;51.650;17.780;2023-01-15T16:09:08;98783.17;;;20.11;50.42
56789;BME280;42657;51.650;17.780;2023-01-15T16:12:11;98792.92;;;20.11;50.23
56789;BME280;42657;51.650;17.780;2023-01-15T16:15:28;98813.24;;;20.11;50.22
56789;BME280;42657;51.650;17.780;2023-01-15T16:18:34;98822.86;;;20.11;50.16
56789;BME280;42657;51.650;17.780;2023-01-15T16:21:39;98835.21;;;20.12;50.19
56789;BME280;42657;51.650;17.780;2023-01-15T16:24:54;98850.06;;;20.12;50.08
56789;BME280;42657;51.650;17.780;2023-01-15T16:27:57;98864.05;;;20.12;49.98
56789;BME280;42657;51.650;17.780;2023-01-15T16:31:00;98872.34;;;20.13;49.88
56789;BME280;42657;51.650;17.780;2023-01-15T16:34:03;98877.97;;;20.14;50.04
56789;BME280;42657;51.650;17.780;2023-01-15T16:37:25;98876.17;;;20.13;49.93
56789;BME280;42657;51.650;17.780;2023-01-15T16:40:31;98878.30;;;20.14;49.92
56789;BME280;42657;51.650;17.780;2023-01-15T16:43:49;98885.33;;;20.14;49.79
56789;BME280;42657;51.650;17.780;2023-01-15T16:46:52;98895.64;;;20.14;49.75
56789;BME280;42657;51.650;17.780;2023-01-15T17:02:45;98900.59;;;20.15;49.75
56789;BME280;42657;51.650;17.780;2023-01-15T17:05:48;98906.77;;;20.15;49.67
56789;BME280;42657;51.650;17.780;2023-01-15T17:08:51;98909.04;;;20.16;49.66
56789;BME280;42657;51.650;17.780;2023-01-15T17:11:53;98906.23;;;20.16;49.60
56789;BME280;42657;51.650;17.780;2023-01-15T17:18:26;98888.29;;;20.17;49.53
56789;BME280;42657;51.650;17.780;2023-01-15T17:21:28;98892.13;;;20.17;49.51
56789;BME280;42657;51.650;17.780;2023-01-15T17:24:30;98896.11;;;20.17;49.36
56789;BME280;42657;51.650;17.780;2023-01-15T17:27:32;98900.33;;;20.17;49.45
56789;BME280;42657;51.650;17.780;2023-01-15T17:30:34;98906.65;;;20.17;49.44
56789;BME280;42657;51.650;17.780;2023-01-15T17:33:35;98918.23;;;20.18;49.49
56789;BME280;42657;51.650;17.780;2023-01-15T17:36:37;98925.81;;;20.18;49.53
56789;BME280;42657;51.650;17.780;2023-01-15T17:39:39;98923.23;;;20.18;49.52
56789;BME280;42657;51.650;17.780;2023-01-15T17:42:41;98928.40;;;20.19;49.56
56789;BME280;42657;51.650;17.780;2023-01-15T17:45:42;98935.98;;;20.19;49.47
56789;BME280;42657;51.650;17.780;2023-01-15T17:48:44;98944.35;;;20.19;49.49
56789;BME280;42657;51.650;17.780;2023-01-15T17:51:46;98945.30;;;20.20;49.58
56789;BME280;42657;51.650;17.780;2023-01-15T17:54:47;98939.23;;;20.21;49.53
56789;BME280;42657;51.650;17.780;2023-01-15T17:57:49;98944.48;;;20.21;49.44